sensor_id;sensor_type;location;lat;lon;timestamp;P1;durP1;ratioP1;P2;durP2;ratioP2
26413;SDS011;14108;53.668;10.288;2022-08-19T00:01:53;18.02;;;12.77;;
26413;SDS011;14108;53.668;10.288;2022-08-19T00:04:21;23.02;;;14.27;;
26413;SDS011;14108;53.668;10.288;2022-08-19T00:06:48;17.80;;;13.07;;
26413;SDS011;14108;53.668;10.288;2022-08-19T00:09:16;21.20;;;14.87;;
26413;SDS011;14108;53.668;10.288;2022-08-19T00:11:43;27.25;;;15.95;;
26413;SDS011;14108;53.668;10.288;2022-08-19T00:14:12;24.33;;;15.65;;
26413;SDS011;14108;53.668;10.288;2022-08-19T00:16:41;24.12;;;15.77;;
26413;SDS011;14108;53.668;10.288;2022-08-19T00:19:09;29.12;;;17.02;;
26413;SDS011;14108;53.668;10.288;2022-08-19T00:21:36;30.15;;;18.05;;
26413;SDS011;14108;53.668;10.288;2022-08-19T00:24:05;33.10;;;18.15;;
26413;SDS011;14108;53.668;10.288;2022-08-19T00:26:32;29.92;;;20.35;;
26413;SDS011;14108;53.668;10.288;2022-08-19T00:28:59;35.40;;;20.98;;
26413;SDS011;14108;53.668;10.288;2022-08-19T00:31:26;28.85;;;18.50;;
26413;SDS011;14108;53.668;10.288;2022-08-19T00:33:53;32.78;;;17.95;;
26413;SDS011;14108;53.668;10.288;2022-08-19T00:36:20;29.83;;;19.73;;
26413;SDS011;14108;53.668;10.288;2022-08-19T00:38:47;31.37;;;20.67;;
26413;SDS011;14108;53.668;10.288;2022-08-19T00:41:15;35.50;;;19.45;;
26413;SDS011;14108;53.668;10.288;2022-08-19T00:43:56;29.42;;;18.85;;
26413;SDS011;14108;53.668;10.288;2022-08-19T00:46:24;25.75;;;18.52;;
26413;SDS011;14108;53.668;10.288;2022-08-19T00:48:51;27.27;;;18.17;;
26413;SDS011;14108;53.668;10.288;2022-08-19T00:51:18;32.17;;;20.65;;
26413;SDS011;14108;53.668;10.288;2022-08-19T00:53:45;35.95;;;21.77;;
26413;SDS011;14108;53.668;10.288;2022-08-19T00:56:12;28.30;;;18.98;;
26413;SDS011;14108;53.668;10.288;2022-08-19T00:58:41;33.78;;;20.75;;
26413;SDS011;14108;53.668;10.288;2022-08-19T01:01:08;36.22;;;20.27;;
26413;SDS011;14108;53.668;10.288;2022-08-19T01:03:35;30.27;;;21.20;;
26413;SDS011;14108;53.668;10.288;2022-08-19T01:06:02;35.90;;;21.37;;
26413;SDS011;14108;53.668;10.288;2022-08-19T01:08:29;42.13;;;23.23;;
26413;SDS011;14108;53.668;10.288;2022-08-19T01:10:57;36.05;;;21.92;;
26413;SDS011;14108;53.668;10.288;2022-08-19T01:13:26;40.17;;;22.25;;
26413;SDS011;14108;53.668;10.288;2022-08-19T01:15:55;37.38;;;23.23;;
26413;SDS011;14108;53.668;10.288;2022-08-19T01:18:23;33.08;;;21.67;;
26413;SDS011;14108;53.668;10.288;2022-08-19T01:20:50;38.40;;;23.77;;
26413;SDS011;14108;53.668;10.288;2022-08-19T01:23:18;40.80;;;23.00;;
26413;SDS011;14108;53.668;10.288;2022-08-19T01:25:46;41.63;;;24.20;;
26413;SDS011;14108;53.668;10.288;2022-08-19T01:28:15;39.00;;;23.58;;
26413;SDS011;14108;53.668;10.288;2022-08-19T01:30:43;38.33;;;24.23;;
26413;SDS011;14108;53.668;10.288;2022-08-19T01:33:11;36.17;;;23.55;;
26413;SDS011;14108;53.668;10.288;2022-08-19T01:35:39;36.00;;;23.10;;
26413;SDS011;14108;53.668;10.288;2022-08-19T01:38:07;38.95;;;23.92;;
26413;SDS011;14108;53.668;10.288;2022-08-19T01:40:37;37.10;;;23.27;;
26413;SDS011;14108;53.668;10.288;2022-08-19T01:43:05;39.88;;;24.25;;
26413;SDS011;14108;53.668;10.288;2022-08-19T01:45:33;38.53;;;24.92;;
26413;SDS011;14108;53.668;10.288;2022-08-19T01:48:00;38.42;;;22.83;;
26413;SDS011;14108;53.668;10.288;2022-08-19T01:50:28;35.80;;;23.27;;
26413;SDS011;14108;53.668;10.288;2022-08-19T01:52:55;37.53;;;22.85;;
26413;SDS011;14108;53.668;10.288;2022-08-19T01:55:22;37.85;;;23.67;;
26413;SDS011;14108;53.668;10.288;2022-08-19T01:57:50;38.75;;;23.75;;
26413;SDS011;14108;53.668;10.288;2022-08-19T02:00:19;32.10;;;21.62;;
26413;SDS011;14108;53.668;10.288;2022-08-19T02:02:46;31.10;;;21.40;;
26413;SDS011;14108;53.668;10.288;2022-08-19T02:05:13;34.53;;;21.37;;
26413;SDS011;14108;53.668;10.288;2022-08-19T02:07:43;34.28;;;21.65;;
26413;SDS011;14108;53.668;10.288;2022-08-19T02:10:12;38.05;;;22.65;;
26413;SDS011;14108;53.668;10.288;2022-08-19T02:12:40;34.65;;;20.70;;
26413;SDS011;14108;53.668;10.288;2022-08-19T02:15:07;34.00;;;20.30;;
26413;SDS011;14108;53.668;10.288;2022-08-19T02:17:34;31.70;;;19.40;;
26413;SDS011;14108;53.668;10.288;2022-08-19T02:20:02;35.45;;;21.70;;
26413;SDS011;14108;53.668;10.288;2022-08-19T02:22:29;34.95;;;21.70;;
26413;SDS011;14108;53.668;10.288;2022-08-19T02:24:56;33.63;;;21.27;;
26413;SDS011;14108;53.668;10.288;2022-08-19T02:27:23;37.40;;;22.52;;
26413;SDS011;14108;53.668;10.288;2022-08-19T02:29:51;34.55;;;19.75;;
26413;SDS011;14108;53.668;10.288;2022-08-19T02:32:18;37.22;;;20.80;;
26413;SDS011;14108;53.668;10.288;2022-08-19T02:34:46;37.97;;;20.77;;
26413;SDS011;14108;53.668;10.288;2022-08-19T02:37:13;35.72;;;19.85;;
26413;SDS011;14108;53.668;10.288;2022-08-19T02:40:00;37.20;;;20.58;;
26413;SDS011;14108;53.668;10.288;2022-08-19T02:42:27;39.72;;;22.62;;
26413;SDS011;14108;53.668;10.288;2022-08-19T02:44:55;40.67;;;21.02;;
26413;SDS011;14108;53.668;10.288;2022-08-19T02:47:22;27.65;;;17.52;;
26413;SDS011;14108;53.668;10.288;2022-08-19T02:49:49;35.28;;;19.33;;
26413;SDS011;14108;53.668;10.288;2022-08-19T02:52:16;33.42;;;19.98;;
26413;SDS011;14108;53.668;10.288;2022-08-19T02:54:43;38.30;;;20.45;;
26413;SDS011;14108;53.668;10.288;2022-08-19T02:57:10;44.47;;;21.95;;
26413;SDS011;14108;53.668;10.288;2022-08-19T02:59:37;38.00;;;21.92;;
26413;SDS011;14108;53.668;10.288;2022-08-19T03:02:05;37.47;;;20.55;;
26413;SDS011;14108;53.668;10.288;2022-08-19T03:04:32;35.70;;;20.60;;
26413;SDS011;14108;53.668;10.288;2022-08-19T03:06:59;35.35;;;19.12;;
26413;SDS011;14108;53.668;10.288;2022-08-19T03:09:26;35.50;;;18.90;;
26413;SDS011;14108;53.668;10.288;2022-08-19T03:11:55;33.00;;;20.02;;
26413;SDS011;14108;53.668;10.288;2022-08-19T03:14:22;35.78;;;21.00;;
26413;SDS011;14108;53.668;10.288;2022-08-19T03:16:50;32.85;;;17.40;;
26413;SDS011;14108;53.668;10.288;2022-08-19T03:19:18;36.17;;;18.75;;
26413;SDS011;14108;53.668;10.288;2022-08-19T03:21:46;28.50;;;18.02;;
26413;SDS011;14108;53.668;10.288;2022-08-19T03:24:14;33.90;;;19.62;;
26413;SDS011;14108;53.668;10.288;2022-08-19T03:26:42;39.85;;;22.08;;
26413;SDS011;14108;53.668;10.288;2022-08-19T03:29:09;42.50;;;21.17;;
26413;SDS011;14108;53.668;10.288;2022-08-19T03:31:37;43.38;;;20.50;;
26413;SDS011;14108;53.668;10.288;2022-08-19T03:34:04;45.20;;;22.23;;
26413;SDS011;14108;53.668;10.288;2022-08-19T03:36:31;42.60;;;20.45;;
26413;SDS011;14108;53.668;10.288;2022-08-19T03:38:59;41.42;;;21.65;;
26413;SDS011;14108;53.668;10.288;2022-08-19T03:41:28;41.22;;;20.40;;
26413;SDS011;14108;53.668;10.288;2022-08-19T03:43:57;36.95;;;20.37;;
26413;SDS011;14108;53.668;10.288;2022-08-19T03:46:25;33.38;;;17.92;;
26413;SDS011;14108;53.668;10.288;2022-08-19T03:48:54;35.92;;;19.02;;
26413;SDS011;14108;53.668;10.288;2022-08-19T03:51:22;35.88;;;20.40;;
26413;SDS011;14108;53.668;10.288;2022-08-19T03:53:50;41.67;;;21.50;;
26413;SDS011;14108;53.668;10.288;2022-08-19T03:56:18;39.03;;;20.77;;
26413;SDS011;14108;53.668;10.288;2022-08-19T03:58:45;36.08;;;19.08;;
26413;SDS011;14108;53.668;10.288;2022-08-19T04:01:14;40.50;;;21.05;;
26413;SDS011;14108;53.668;10.288;2022-08-19T04:03:41;34.60;;;18.50;;
26413;SDS011;14108;53.668;10.288;2022-08-19T04:06:12;29.77;;;17.45;;
26413;SDS011;14108;53.668;10.288;2022-08-19T04:08:39;34.33;;;18.80;;
26413;SDS011;14108;53.668;10.288;2022-08-19T04:11:08;33.92;;;18.25;;
26413;SDS011;14108;53.668;10.288;2022-08-19T04:13:35;37.53;;;18.83;;
26413;SDS011;14108;53.668;10.288;2022-08-19T04:16:02;33.83;;;20.00;;
26413;SDS011;14108;53.668;10.288;2022-08-19T04:18:30;41.37;;;23.45;;
26413;SDS011;14108;53.668;10.288;2022-08-19T04:20:58;31.12;;;18.45;;
26413;SDS011;14108;53.668;10.288;2022-08-19T04:23:26;29.25;;;18.12;;
26413;SDS011;14108;53.668;10.288;2022-08-19T04:25:54;33.83;;;18.02;;
26413;SDS011;14108;53.668;10.288;2022-08-19T04:28:21;28.87;;;17.00;;
26413;SDS011;14108;53.668;10.288;2022-08-19T04:30:49;38.92;;;20.70;;
26413;SDS011;14108;53.668;10.288;2022-08-19T04:33:17;35.72;;;18.35;;
26413;SDS011;14108;53.668;10.288;2022-08-19T04:35:46;40.85;;;21.23;;
26413;SDS011;14108;53.668;10.288;2022-08-19T04:38:14;28.48;;;18.55;;
26413;SDS011;14108;53.668;10.288;2022-08-19T04:40:42;41.63;;;22.37;;
26413;SDS011;14108;53.668;10.288;2022-08-19T04:43:28;39.65;;;21.33;;
26413;SDS011;14108;53.668;10.288;2022-08-19T04:45:56;32.95;;;18.40;;
26413;SDS011;14108;53.668;10.288;2022-08-19T04:48:23;37.42;;;20.83;;
26413;SDS011;14108;53.668;10.288;2022-08-19T04:50:52;40.65;;;21.75;;
26413;SDS011;14108;53.668;10.288;2022-08-19T04:53:23;27.48;;;17.25;;
26413;SDS011;14108;53.668;10.288;2022-08-19T04:55:50;34.47;;;18.45;;
26413;SDS011;14108;53.668;10.288;2022-08-19T04:58:17;32.78;;;16.67;;
26413;SDS011;14108;53.668;10.288;2022-08-19T05:00:44;35.92;;;18.73;;
26413;SDS011;14108;53.668;10.288;2022-08-19T05:03:11;34.00;;;19.60;;
26413;SDS011;14108;53.668;10.288;2022-08-19T05:05:42;41.03;;;20.33;;
26413;SDS011;14108;53.668;10.288;2022-08-19T05:08:10;34.83;;;19.02;;
26413;SDS011;14108;53.668;10.288;2022-08-19T05:10:37;35.53;;;20.00;;
26413;SDS011;14108;53.668;10.288;2022-08-19T05:13:05;37.45;;;19.62;;
26413;SDS011;14108;53.668;10.288;2022-08-19T05:15:32;32.83;;;18.05;;
26413;SDS011;14108;53.668;10.288;2022-08-19T05:17:59;32.47;;;18.20;;
26413;SDS011;14108;53.668;10.288;2022-08-19T05:20:44;42.22;;;21.42;;
26413;SDS011;14108;53.668;10.288;2022-08-19T05:23:29;43.28;;;19.30;;
26413;SDS011;14108;53.668;10.288;2022-08-19T05:25:56;38.38;;;18.83;;
26413;SDS011;14108;53.668;10.288;2022-08-19T05:28:23;36.25;;;19.42;;
26413;SDS011;14108;53.668;10.288;2022-08-19T05:30:50;36.10;;;19.90;;
26413;SDS011;14108;53.668;10.288;2022-08-19T05:33:17;32.53;;;18.58;;
26413;SDS011;14108;53.668;10.288;2022-08-19T05:35:44;37.80;;;20.27;;
26413;SDS011;14108;53.668;10.288;2022-08-19T05:38:11;46.37;;;21.50;;
26413;SDS011;14108;53.668;10.288;2022-08-19T05:40:38;39.38;;;20.12;;
26413;SDS011;14108;53.668;10.288;2022-08-19T05:43:06;33.22;;;18.60;;
26413;SDS011;14108;53.668;10.288;2022-08-19T05:45:37;36.60;;;19.17;;
26413;SDS011;14108;53.668;10.288;2022-08-19T05:48:05;42.20;;;20.42;;
26413;SDS011;14108;53.668;10.288;2022-08-19T05:50:32;43.03;;;19.90;;
26413;SDS011;14108;53.668;10.288;2022-08-19T05:52:59;43.35;;;19.27;;
26413;SDS011;14108;53.668;10.288;2022-08-19T05:55:26;40.50;;;20.35;;
26413;SDS011;14108;53.668;10.288;2022-08-19T05:57:53;46.40;;;20.60;;
26413;SDS011;14108;53.668;10.288;2022-08-19T06:00:20;43.45;;;21.85;;
26413;SDS011;14108;53.668;10.288;2022-08-19T06:02:48;106.85;;;29.37;;
26413;SDS011;14108;53.668;10.288;2022-08-19T06:05:16;50.97;;;22.40;;
26413;SDS011;14108;53.668;10.288;2022-08-19T06:07:43;39.55;;;20.23;;
26413;SDS011;14108;53.668;10.288;2022-08-19T06:10:11;42.08;;;20.23;;
26413;SDS011;14108;53.668;10.288;2022-08-19T06:12:38;45.47;;;22.15;;
26413;SDS011;14108;53.668;10.288;2022-08-19T06:15:08;40.28;;;19.48;;
26413;SDS011;14108;53.668;10.288;2022-08-19T06:17:35;47.03;;;22.37;;
26413;SDS011;14108;53.668;10.288;2022-08-19T06:20:03;43.95;;;20.55;;
26413;SDS011;14108;53.668;10.288;2022-08-19T06:22:30;44.05;;;22.75;;
26413;SDS011;14108;53.668;10.288;2022-08-19T06:24:57;54.88;;;25.08;;
26413;SDS011;14108;53.668;10.288;2022-08-19T06:27:24;41.55;;;20.17;;
26413;SDS011;14108;53.668;10.288;2022-08-19T06:29:51;40.83;;;21.50;;
26413;SDS011;14108;53.668;10.288;2022-08-19T06:32:19;46.92;;;21.42;;
26413;SDS011;14108;53.668;10.288;2022-08-19T06:34:46;39.88;;;19.55;;
26413;SDS011;14108;53.668;10.288;2022-08-19T06:37:13;66.25;;;22.77;;
26413;SDS011;14108;53.668;10.288;2022-08-19T06:39:41;41.63;;;20.15;;
26413;SDS011;14108;53.668;10.288;2022-08-19T06:42:09;40.15;;;21.83;;
26413;SDS011;14108;53.668;10.288;2022-08-19T06:44:39;38.80;;;19.87;;
26413;SDS011;14108;53.668;10.288;2022-08-19T06:47:07;39.22;;;20.37;;
26413;SDS011;14108;53.668;10.288;2022-08-19T06:49:35;37.45;;;20.05;;
26413;SDS011;14108;53.668;10.288;2022-08-19T06:52:03;38.17;;;19.67;;
26413;SDS011;14108;53.668;10.288;2022-08-19T06:54:30;43.78;;;23.38;;
26413;SDS011;14108;53.668;10.288;2022-08-19T06:56:57;33.45;;;18.58;;
26413;SDS011;14108;53.668;10.288;2022-08-19T06:59:27;39.25;;;19.75;;
26413;SDS011;14108;53.668;10.288;2022-08-19T07:01:59;36.13;;;17.83;;
26413;SDS011;14108;53.668;10.288;2022-08-19T07:04:27;39.70;;;21.30;;
26413;SDS011;14108;53.668;10.288;2022-08-19T07:06:59;40.15;;;20.98;;
26413;SDS011;14108;53.668;10.288;2022-08-19T07:09:26;38.97;;;21.58;;
26413;SDS011;14108;53.668;10.288;2022-08-19T07:11:54;39.83;;;21.00;;
26413;SDS011;14108;53.668;10.288;2022-08-19T07:14:22;38.35;;;20.52;;
26413;SDS011;14108;53.668;10.288;2022-08-19T07:16:51;41.85;;;22.17;;
26413;SDS011;14108;53.668;10.288;2022-08-19T07:19:19;40.33;;;20.98;;
26413;SDS011;14108;53.668;10.288;2022-08-19T07:21:47;41.97;;;22.60;;
26413;SDS011;14108;53.668;10.288;2022-08-19T07:24:14;36.13;;;20.05;;
26413;SDS011;14108;53.668;10.288;2022-08-19T07:26:42;55.45;;;26.42;;
26413;SDS011;14108;53.668;10.288;2022-08-19T07:29:09;47.55;;;21.90;;
26413;SDS011;14108;53.668;10.288;2022-08-19T07:31:37;44.45;;;23.27;;
26413;SDS011;14108;53.668;10.288;2022-08-19T07:34:05;42.38;;;21.00;;
26413;SDS011;14108;53.668;10.288;2022-08-19T07:36:32;45.80;;;25.33;;
26413;SDS011;14108;53.668;10.288;2022-08-19T07:39:03;46.95;;;20.37;;
26413;SDS011;14108;53.668;10.288;2022-08-19T07:41:30;40.70;;;21.37;;
26413;SDS011;14108;53.668;10.288;2022-08-19T07:43:58;53.33;;;23.48;;
26413;SDS011;14108;53.668;10.288;2022-08-19T07:46:29;45.97;;;21.98;;
26413;SDS011;14108;53.668;10.288;2022-08-19T07:48:57;42.92;;;21.65;;
26413;SDS011;14108;53.668;10.288;2022-08-19T07:51:24;43.08;;;21.75;;
26413;SDS011;14108;53.668;10.288;2022-08-19T07:53:51;37.92;;;19.95;;
26413;SDS011;14108;53.668;10.288;2022-08-19T07:56:20;41.75;;;20.30;;
26413;SDS011;14108;53.668;10.288;2022-08-19T07:58:48;41.75;;;21.30;;
26413;SDS011;14108;53.668;10.288;2022-08-19T08:01:16;43.78;;;21.80;;
26413;SDS011;14108;53.668;10.288;2022-08-19T08:03:43;50.63;;;23.95;;
26413;SDS011;14108;53.668;10.288;2022-08-19T08:06:29;40.10;;;19.95;;
26413;SDS011;14108;53.668;10.288;2022-08-19T08:09:15;36.88;;;20.33;;
26413;SDS011;14108;53.668;10.288;2022-08-19T08:11:48;35.17;;;20.48;;
26413;SDS011;14108;53.668;10.288;2022-08-19T08:14:16;43.63;;;20.35;;
26413;SDS011;14108;53.668;10.288;2022-08-19T08:16:44;37.90;;;20.62;;
26413;SDS011;14108;53.668;10.288;2022-08-19T08:19:12;44.70;;;21.55;;
26413;SDS011;14108;53.668;10.288;2022-08-19T08:21:41;43.97;;;18.80;;
26413;SDS011;14108;53.668;10.288;2022-08-19T08:24:08;36.70;;;19.83;;
26413;SDS011;14108;53.668;10.288;2022-08-19T08:26:35;35.75;;;18.02;;
26413;SDS011;14108;53.668;10.288;2022-08-19T08:29:02;36.17;;;19.90;;
26413;SDS011;14108;53.668;10.288;2022-08-19T08:31:29;36.70;;;19.27;;
26413;SDS011;14108;53.668;10.288;2022-08-19T08:33:58;39.60;;;21.10;;
26413;SDS011;14108;53.668;10.288;2022-08-19T08:36:25;39.30;;;19.92;;
26413;SDS011;14108;53.668;10.288;2022-08-19T08:38:53;35.47;;;18.85;;
26413;SDS011;14108;53.668;10.288;2022-08-19T08:41:25;54.10;;;21.35;;
26413;SDS011;14108;53.668;10.288;2022-08-19T08:43:55;78.10;;;23.58;;
26413;SDS011;14108;53.668;10.288;2022-08-19T08:46:24;50.53;;;21.98;;
26413;SDS011;14108;53.668;10.288;2022-08-19T08:48:54;35.15;;;19.00;;
26413;SDS011;14108;53.668;10.288;2022-08-19T08:51:24;35.78;;;18.37;;
26413;SDS011;14108;53.668;10.288;2022-08-19T08:53:52;34.88;;;18.48;;
26413;SDS011;14108;53.668;10.288;2022-08-19T08:56:20;30.77;;;16.95;;
26413;SDS011;14108;53.668;10.288;2022-08-19T08:58:51;36.35;;;18.52;;
26413;SDS011;14108;53.668;10.288;2022-08-19T09:01:19;29.85;;;17.20;;
26413;SDS011;14108;53.668;10.288;2022-08-19T09:03:47;29.42;;;17.52;;
26413;SDS011;14108;53.668;10.288;2022-08-19T09:06:14;37.00;;;18.95;;
26413;SDS011;14108;53.668;10.288;2022-08-19T09:08:47;32.80;;;18.35;;
26413;SDS011;14108;53.668;10.288;2022-08-19T09:11:28;35.65;;;17.67;;
26413;SDS011;14108;53.668;10.288;2022-08-19T09:14:02;30.65;;;17.35;;
26413;SDS011;14108;53.668;10.288;2022-08-19T09:16:32;31.02;;;16.27;;
26413;SDS011;14108;53.668;10.288;2022-08-19T09:19:02;40.75;;;21.37;;
26413;SDS011;14108;53.668;10.288;2022-08-19T09:21:29;36.53;;;17.40;;
26413;SDS011;14108;53.668;10.288;2022-08-19T09:23:56;30.02;;;17.58;;
26413;SDS011;14108;53.668;10.288;2022-08-19T09:26:24;43.15;;;18.70;;
26413;SDS011;14108;53.668;10.288;2022-08-19T09:28:52;40.42;;;19.30;;
26413;SDS011;14108;53.668;10.288;2022-08-19T09:31:22;30.77;;;17.62;;
26413;SDS011;14108;53.668;10.288;2022-08-19T09:33:49;37.63;;;20.05;;
26413;SDS011;14108;53.668;10.288;2022-08-19T09:36:18;41.13;;;20.08;;
26413;SDS011;14108;53.668;10.288;2022-08-19T09:38:45;35.33;;;19.25;;
26413;SDS011;14108;53.668;10.288;2022-08-19T09:41:14;32.85;;;18.58;;
26413;SDS011;14108;53.668;10.288;2022-08-19T09:43:41;31.05;;;16.95;;
26413;SDS011;14108;53.668;10.288;2022-08-19T09:46:11;77.22;;;25.58;;
26413;SDS011;14108;53.668;10.288;2022-08-19T09:48:38;52.20;;;20.77;;
26413;SDS011;14108;53.668;10.288;2022-08-19T09:51:07;44.63;;;22.58;;
26413;SDS011;14108;53.668;10.288;2022-08-19T09:53:34;62.80;;;21.92;;
26413;SDS011;14108;53.668;10.288;2022-08-19T09:56:01;35.38;;;17.27;;
26413;SDS011;14108;53.668;10.288;2022-08-19T09:58:29;80.43;;;23.67;;
26413;SDS011;14108;53.668;10.288;2022-08-19T10:00:56;32.58;;;16.30;;
26413;SDS011;14108;53.668;10.288;2022-08-19T10:03:24;30.95;;;18.37;;
26413;SDS011;14108;53.668;10.288;2022-08-19T10:05:51;37.33;;;19.05;;
26413;SDS011;14108;53.668;10.288;2022-08-19T10:08:20;58.03;;;23.90;;
26413;SDS011;14108;53.668;10.288;2022-08-19T10:10:48;36.03;;;20.05;;
26413;SDS011;14108;53.668;10.288;2022-08-19T10:13:17;40.63;;;22.65;;
26413;SDS011;14108;53.668;10.288;2022-08-19T10:15:47;41.00;;;21.02;;
26413;SDS011;14108;53.668;10.288;2022-08-19T10:18:16;105.05;;;29.60;;
26413;SDS011;14108;53.668;10.288;2022-08-19T10:20:44;34.47;;;19.55;;
26413;SDS011;14108;53.668;10.288;2022-08-19T10:23:11;32.88;;;19.80;;
26413;SDS011;14108;53.668;10.288;2022-08-19T10:25:38;33.00;;;18.98;;
26413;SDS011;14108;53.668;10.288;2022-08-19T10:28:06;39.00;;;20.88;;
26413;SDS011;14108;53.668;10.288;2022-08-19T10:30:33;34.15;;;19.85;;
26413;SDS011;14108;53.668;10.288;2022-08-19T10:33:00;32.30;;;19.65;;
26413;SDS011;14108;53.668;10.288;2022-08-19T10:35:27;33.55;;;20.30;;
26413;SDS011;14108;53.668;10.288;2022-08-19T10:37:55;33.05;;;19.35;;
26413;SDS011;14108;53.668;10.288;2022-08-19T10:40:25;33.92;;;19.37;;
26413;SDS011;14108;53.668;10.288;2022-08-19T10:42:53;31.80;;;17.95;;
26413;SDS011;14108;53.668;10.288;2022-08-19T10:45:21;34.33;;;20.70;;
26413;SDS011;14108;53.668;10.288;2022-08-19T10:47:50;53.40;;;21.62;;
26413;SDS011;14108;53.668;10.288;2022-08-19T10:50:17;36.50;;;20.88;;
26413;SDS011;14108;53.668;10.288;2022-08-19T10:53:10;37.38;;;20.85;;
26413;SDS011;14108;53.668;10.288;2022-08-19T10:55:37;33.22;;;20.58;;
26413;SDS011;14108;53.668;10.288;2022-08-19T10:58:33;35.40;;;21.95;;
26413;SDS011;14108;53.668;10.288;2022-08-19T11:01:01;41.90;;;23.55;;
26413;SDS011;14108;53.668;10.288;2022-08-19T11:03:28;39.10;;;22.87;;
26413;SDS011;14108;53.668;10.288;2022-08-19T11:05:59;39.83;;;22.70;;
26413;SDS011;14108;53.668;10.288;2022-08-19T11:08:26;34.42;;;20.75;;
26413;SDS011;14108;53.668;10.288;2022-08-19T11:10:53;39.20;;;20.98;;
26413;SDS011;14108;53.668;10.288;2022-08-19T11:13:26;35.58;;;21.90;;
26413;SDS011;14108;53.668;10.288;2022-08-19T11:15:57;30.62;;;19.23;;
26413;SDS011;14108;53.668;10.288;2022-08-19T11:18:24;36.38;;;20.65;;
26413;SDS011;14108;53.668;10.288;2022-08-19T11:20:51;33.47;;;19.10;;
26413;SDS011;14108;53.668;10.288;2022-08-19T11:23:19;36.25;;;20.75;;
26413;SDS011;14108;53.668;10.288;2022-08-19T11:28:23;35.83;;;20.05;;
26413;SDS011;14108;53.668;10.288;2022-08-19T11:30:50;29.67;;;20.23;;
26413;SDS011;14108;53.668;10.288;2022-08-19T11:33:17;27.87;;;18.05;;
26413;SDS011;14108;53.668;10.288;2022-08-19T11:35:45;53.85;;;21.98;;
26413;SDS011;14108;53.668;10.288;2022-08-19T11:38:12;32.65;;;20.15;;
26413;SDS011;14108;53.668;10.288;2022-08-19T11:40:40;36.63;;;19.30;;
26413;SDS011;14108;53.668;10.288;2022-08-19T11:43:07;39.03;;;24.02;;
26413;SDS011;14108;53.668;10.288;2022-08-19T11:45:35;29.30;;;18.83;;
26413;SDS011;14108;53.668;10.288;2022-08-19T11:48:02;28.20;;;18.30;;
26413;SDS011;14108;53.668;10.288;2022-08-19T11:50:29;31.12;;;18.37;;
26413;SDS011;14108;53.668;10.288;2022-08-19T11:52:57;26.42;;;16.60;;
26413;SDS011;14108;53.668;10.288;2022-08-19T11:55:24;36.58;;;23.17;;
26413;SDS011;14108;53.668;10.288;2022-08-19T11:57:51;72.43;;;26.20;;
26413;SDS011;14108;53.668;10.288;2022-08-19T12:00:18;137.48;;;33.85;;
26413;SDS011;14108;53.668;10.288;2022-08-19T12:02:45;99.10;;;29.20;;
26413;SDS011;14108;53.668;10.288;2022-08-19T12:05:12;52.53;;;23.10;;
26413;SDS011;14108;53.668;10.288;2022-08-19T12:07:40;29.90;;;18.35;;
26413;SDS011;14108;53.668;10.288;2022-08-19T12:10:09;31.35;;;19.33;;
26413;SDS011;14108;53.668;10.288;2022-08-19T12:12:36;30.33;;;18.17;;
26413;SDS011;14108;53.668;10.288;2022-08-19T12:15:09;33.30;;;20.35;;
26413;SDS011;14108;53.668;10.288;2022-08-19T12:17:37;29.75;;;18.35;;
26413;SDS011;14108;53.668;10.288;2022-08-19T12:20:06;28.30;;;18.45;;
26413;SDS011;14108;53.668;10.288;2022-08-19T12:22:35;33.05;;;20.80;;
26413;SDS011;14108;53.668;10.288;2022-08-19T12:25:02;31.87;;;18.80;;
26413;SDS011;14108;53.668;10.288;2022-08-19T12:27:30;28.17;;;17.98;;
26413;SDS011;14108;53.668;10.288;2022-08-19T12:29:57;29.92;;;18.65;;
26413;SDS011;14108;53.668;10.288;2022-08-19T12:32:27;25.02;;;18.35;;
26413;SDS011;14108;53.668;10.288;2022-08-19T12:34:54;29.87;;;18.02;;
26413;SDS011;14108;53.668;10.288;2022-08-19T12:37:21;29.67;;;18.15;;
26413;SDS011;14108;53.668;10.288;2022-08-19T12:39:48;27.92;;;18.55;;
26413;SDS011;14108;53.668;10.288;2022-08-19T12:42:15;25.77;;;16.95;;
26413;SDS011;14108;53.668;10.288;2022-08-19T12:44:43;26.30;;;17.52;;
26413;SDS011;14108;53.668;10.288;2022-08-19T12:47:11;29.58;;;19.62;;
26413;SDS011;14108;53.668;10.288;2022-08-19T12:49:39;35.55;;;21.48;;
26413;SDS011;14108;53.668;10.288;2022-08-19T12:52:07;28.60;;;18.83;;
26413;SDS011;14108;53.668;10.288;2022-08-19T12:54:35;32.08;;;19.65;;
26413;SDS011;14108;53.668;10.288;2022-08-19T12:57:05;30.65;;;19.55;;
26413;SDS011;14108;53.668;10.288;2022-08-19T12:59:33;28.02;;;17.77;;
26413;SDS011;14108;53.668;10.288;2022-08-19T13:02:01;27.02;;;17.10;;
26413;SDS011;14108;53.668;10.288;2022-08-19T13:04:29;29.00;;;19.20;;
26413;SDS011;14108;53.668;10.288;2022-08-19T13:06:56;29.55;;;19.10;;
26413;SDS011;14108;53.668;10.288;2022-08-19T13:09:24;27.85;;;18.67;;
26413;SDS011;14108;53.668;10.288;2022-08-19T13:11:51;26.30;;;17.08;;
26413;SDS011;14108;53.668;10.288;2022-08-19T13:14:18;24.75;;;16.65;;
26413;SDS011;14108;53.668;10.288;2022-08-19T13:16:45;27.30;;;18.05;;
26413;SDS011;14108;53.668;10.288;2022-08-19T13:19:12;21.45;;;15.50;;
26413;SDS011;14108;53.668;10.288;2022-08-19T13:21:39;20.27;;;13.93;;
26413;SDS011;14108;53.668;10.288;2022-08-19T13:24:06;28.73;;;19.92;;
26413;SDS011;14108;53.668;10.288;2022-08-19T13:26:34;26.52;;;19.30;;
26413;SDS011;14108;53.668;10.288;2022-08-19T13:29:01;25.77;;;17.45;;
26413;SDS011;14108;53.668;10.288;2022-08-19T13:31:48;27.83;;;19.50;;
26413;SDS011;14108;53.668;10.288;2022-08-19T13:34:34;22.98;;;15.32;;
26413;SDS011;14108;53.668;10.288;2022-08-19T13:37:02;24.25;;;16.83;;
26413;SDS011;14108;53.668;10.288;2022-08-19T13:39:30;22.73;;;16.58;;
26413;SDS011;14108;53.668;10.288;2022-08-19T13:41:58;19.80;;;14.70;;
26413;SDS011;14108;53.668;10.288;2022-08-19T13:44:26;18.62;;;13.93;;
26413;SDS011;14108;53.668;10.288;2022-08-19T13:46:55;19.77;;;14.30;;
26413;SDS011;14108;53.668;10.288;2022-08-19T13:49:28;18.08;;;12.43;;
26413;SDS011;14108;53.668;10.288;2022-08-19T13:51:56;16.67;;;12.23;;
26413;SDS011;14108;53.668;10.288;2022-08-19T13:54:23;16.20;;;12.43;;
26413;SDS011;14108;53.668;10.288;2022-08-19T13:56:50;19.42;;;13.35;;
26413;SDS011;14108;53.668;10.288;2022-08-19T13:59:17;18.65;;;12.65;;
26413;SDS011;14108;53.668;10.288;2022-08-19T14:01:44;17.73;;;12.75;;
26413;SDS011;14108;53.668;10.288;2022-08-19T14:04:12;19.00;;;12.20;;
26413;SDS011;14108;53.668;10.288;2022-08-19T14:06:39;18.33;;;13.40;;
26413;SDS011;14108;53.668;10.288;2022-08-19T14:09:06;19.48;;;12.88;;
26413;SDS011;14108;53.668;10.288;2022-08-19T14:11:33;17.15;;;11.65;;
26413;SDS011;14108;53.668;10.288;2022-08-19T14:14:00;18.48;;;13.48;;
26413;SDS011;14108;53.668;10.288;2022-08-19T14:16:27;16.45;;;12.37;;
26413;SDS011;14108;53.668;10.288;2022-08-19T14:18:56;17.02;;;13.43;;